This is the latest recevied weather packets stored in our database for station/object N3TTT-13. If no packets are shown the sender has not sent any weather packets the latest 1 day(s).
| Time | Temp. | Humidity | Pressure | Rain* | Wind** | Luminosity | Snow |
|---|---|---|---|---|---|---|---|
| 1778080357 | 20° C | 77% | 1011.3 hPa | 0 mm | 0.45 m/s, 241° | 186 W/m² | - |
| 1778080054 | 20° C | 76% | 1011.1 hPa | 0 mm | 0.45 m/s, 286° | 183 W/m² | - |
| 1778079751 | 20° C | 76% | 1011.4 hPa | 0 mm | 1.34 m/s, 268° | 150 W/m² | - |
| 1778079448 | 20.56° C | 74% | 1011 hPa | 0 mm | 1.34 m/s, 296° | 147 W/m² | - |
| 1778079144 | 21.11° C | 71% | 1011.2 hPa | 0 mm | 0.45 m/s, 234° | 143 W/m² | - |
| 1778078842 | 21.11° C | 70% | 1011 hPa | 0 mm | 0.45 m/s, 39° | 147 W/m² | - |
| 1778078539 | 21.67° C | 69% | 1011 hPa | 0 mm | 0 m/s | 169 W/m² | - |
| 1778078236 | 21.67° C | 70% | 1011.2 hPa | 0 mm | 0 m/s | 393 W/m² | - |
| 1778077934 | 21.67° C | 69% | 1011.3 hPa | 0 mm | 0.89 m/s, 89° | 206 W/m² | - |
| 1778077632 | 22.22° C | 67% | 1011.2 hPa | 0 mm | 0.89 m/s, 263° | 268 W/m² | - |
| 1778077330 | 22.22° C | 67% | 1011.1 hPa | 0 mm | 1.34 m/s, 255° | 294 W/m² | - |
| 1778077028 | 21.67° C | 69% | 1011.1 hPa | 0 mm | 0 m/s | 452 W/m² | - |
| 1778076726 | 21.67° C | 68% | 1011.1 hPa | 0 mm | 0.89 m/s, 186° | 247 W/m² | - |
| 1778076423 | 21.11° C | 69% | 1011.2 hPa | 0 mm | 0.45 m/s, 257° | 226 W/m² | - |
| 1778076120 | 21.11° C | 69% | 1011.2 hPa | 0 mm | 1.79 m/s, 185° | 175 W/m² | - |
| 1778075817 | 21.11° C | 69% | 1011.1 hPa | 0 mm | 0.45 m/s, 204° | 165 W/m² | - |
| 1778075513 | 21.11° C | 69% | 1011.1 hPa | 0 mm | 0 m/s | 156 W/m² | - |
| 1778075210 | 21.67° C | 67% | 1010.9 hPa | 0 mm | 2.24 m/s, 227° | 193 W/m² | - |
| 1778074906 | 21.11° C | 69% | 1010.8 hPa | 0 mm | 0.45 m/s, 279° | 312 W/m² | - |
| 1778074603 | 20.56° C | 69% | 1010.9 hPa | 0 mm | 1.34 m/s, 249° | 382 W/m² | - |
| 1778074300 | 20.56° C | 70% | 1011.3 hPa | 0 mm | 0.89 m/s, 329° | 218 W/m² | - |
| 1778073997 | 20.56° C | 70% | 1011.2 hPa | 0 mm | 0.45 m/s, 204° | 152 W/m² | - |
| 1778073694 | 21.11° C | 70% | 1011 hPa | 0 mm | 0 m/s | 157 W/m² | - |
| 1778073392 | 21.11° C | 69% | 1011 hPa | 0 mm | 0.89 m/s, 266° | 269 W/m² | - |
| 1778073088 | 20.56° C | 70% | 1011 hPa | 0 mm | 0.45 m/s, 341° | 274 W/m² | - |
* Rain latest hour (hover to see other rain measurements)
** Current wind speed in m/s (hover to see current wind gust speed)